sensor_id;sensor_type;location;lat;lon;timestamp;noise_LAeq;noise_LA_min;noise_LA_max;noise_LA01;noise_LA95
76338;Laerm;20358;50.272;19.026;2023-03-26T00:02:53;46.58;36.44;67.99;;
76338;Laerm;20358;50.272;19.026;2023-03-26T00:06:02;48.08;35.94;68.03;;
76338;Laerm;20358;50.272;19.026;2023-03-26T00:09:10;45.03;35.42;67.97;;
76338;Laerm;20358;50.272;19.026;2023-03-26T00:12:20;46.27;35.31;64.07;;
76338;Laerm;20358;50.272;19.026;2023-03-26T00:15:29;49.24;36.05;71.12;;
76338;Laerm;20358;50.272;19.026;2023-03-26T00:18:41;49.02;36.17;68.85;;
76338;Laerm;20358;50.272;19.026;2023-03-26T00:21:49;52.97;38.96;73.74;;
76338;Laerm;20358;50.272;19.026;2023-03-26T00:24:55;50.34;39.72;69.39;;
76338;Laerm;20358;50.272;19.026;2023-03-26T00:28:03;56.86;43.92;85.33;;
76338;Laerm;20358;50.272;19.026;2023-03-26T00:31:13;52.46;40.90;75.95;;
76338;Laerm;20358;50.272;19.026;2023-03-26T00:34:19;50.00;38.30;69.72;;
76338;Laerm;20358;50.272;19.026;2023-03-26T00:37:27;49.93;36.02;73.63;;
76338;Laerm;20358;50.272;19.026;2023-03-26T00:40:35;47.50;35.73;67.22;;
76338;Laerm;20358;50.272;19.026;2023-03-26T00:43:46;47.17;36.48;67.68;;
76338;Laerm;20358;50.272;19.026;2023-03-26T00:46:55;46.28;35.50;66.38;;
76338;Laerm;20358;50.272;19.026;2023-03-26T00:50:03;42.71;35.60;68.73;;
76338;Laerm;20358;50.272;19.026;2023-03-26T00:53:11;46.30;35.33;61.86;;
76338;Laerm;20358;50.272;19.026;2023-03-26T00:56:18;44.36;36.15;63.73;;
76338;Laerm;20358;50.272;19.026;2023-03-26T00:59:25;44.54;34.94;68.87;;
76338;Laerm;20358;50.272;19.026;2023-03-26T01:02:36;43.14;35.67;67.02;;
76338;Laerm;20358;50.272;19.026;2023-03-26T01:05:47;44.13;35.25;59.79;;
76338;Laerm;20358;50.272;19.026;2023-03-26T01:08:56;45.97;36.47;62.57;;
76338;Laerm;20358;50.272;19.026;2023-03-26T01:12:13;42.43;35.33;59.67;;
76338;Laerm;20358;50.272;19.026;2023-03-26T01:15:20;42.38;35.57;61.41;;
76338;Laerm;20358;50.272;19.026;2023-03-26T01:18:48;45.26;34.86;65.71;;
76338;Laerm;20358;50.272;19.026;2023-03-26T01:21:57;48.05;37.73;68.73;;
76338;Laerm;20358;50.272;19.026;2023-03-26T01:25:08;47.79;36.92;70.77;;
76338;Laerm;20358;50.272;19.026;2023-03-26T01:28:17;44.13;35.96;65.72;;
76338;Laerm;20358;50.272;19.026;2023-03-26T01:31:33;47.19;35.67;65.47;;
76338;Laerm;20358;50.272;19.026;2023-03-26T01:35:02;44.32;35.49;60.28;;
76338;Laerm;20358;50.272;19.026;2023-03-26T01:38:28;47.40;37.25;69.84;;
76338;Laerm;20358;50.272;19.026;2023-03-26T01:41:46;48.62;36.46;69.97;;
76338;Laerm;20358;50.272;19.026;2023-03-26T01:45:05;45.46;36.15;67.44;;
76338;Laerm;20358;50.272;19.026;2023-03-26T01:48:14;43.65;35.89;58.29;;
76338;Laerm;20358;50.272;19.026;2023-03-26T01:51:28;46.10;37.15;67.09;;
76338;Laerm;20358;50.272;19.026;2023-03-26T01:54:38;43.85;35.50;56.19;;
76338;Laerm;20358;50.272;19.026;2023-03-26T01:58:11;47.36;36.61;72.59;;
76338;Laerm;20358;50.272;19.026;2023-03-26T02:01:28;41.43;35.79;56.07;;
76338;Laerm;20358;50.272;19.026;2023-03-26T02:04:50;48.24;36.09;65.32;;
76338;Laerm;20358;50.272;19.026;2023-03-26T02:08:09;45.15;35.82;61.98;;
76338;Laerm;20358;50.272;19.026;2023-03-26T02:11:24;41.78;35.33;55.46;;
76338;Laerm;20358;50.272;19.026;2023-03-26T02:14:40;46.29;36.19;65.88;;
76338;Laerm;20358;50.272;19.026;2023-03-26T02:17:48;46.63;35.88;67.05;;
76338;Laerm;20358;50.272;19.026;2023-03-26T02:20:55;45.78;35.97;64.70;;
76338;Laerm;20358;50.272;19.026;2023-03-26T02:24:03;47.91;36.30;71.07;;
76338;Laerm;20358;50.272;19.026;2023-03-26T02:27:11;46.07;36.28;60.83;;
76338;Laerm;20358;50.272;19.026;2023-03-26T02:30:25;47.70;36.84;72.46;;
76338;Laerm;20358;50.272;19.026;2023-03-26T02:33:34;44.96;36.35;59.59;;
76338;Laerm;20358;50.272;19.026;2023-03-26T02:36:42;43.82;36.40;57.80;;
76338;Laerm;20358;50.272;19.026;2023-03-26T02:39:48;43.93;36.72;59.26;;
76338;Laerm;20358;50.272;19.026;2023-03-26T02:43:03;50.68;36.74;79.60;;
76338;Laerm;20358;50.272;19.026;2023-03-26T02:46:13;46.97;35.09;70.41;;
76338;Laerm;20358;50.272;19.026;2023-03-26T02:49:29;46.68;36.56;70.87;;
76338;Laerm;20358;50.272;19.026;2023-03-26T02:52:36;46.23;36.30;67.13;;
76338;Laerm;20358;50.272;19.026;2023-03-26T02:55:43;45.58;36.46;59.11;;
76338;Laerm;20358;50.272;19.026;2023-03-26T02:58:53;43.85;36.05;58.51;;
76338;Laerm;20358;50.272;19.026;2023-03-26T03:02:03;45.05;36.37;62.47;;
76338;Laerm;20358;50.272;19.026;2023-03-26T03:05:10;45.81;36.30;59.15;;
76338;Laerm;20358;50.272;19.026;2023-03-26T03:08:17;45.35;35.20;66.76;;
76338;Laerm;20358;50.272;19.026;2023-03-26T03:11:37;43.31;35.32;64.85;;
76338;Laerm;20358;50.272;19.026;2023-03-26T03:14:44;46.92;36.25;67.78;;
76338;Laerm;20358;50.272;19.026;2023-03-26T03:17:53;45.86;36.53;69.05;;
76338;Laerm;20358;50.272;19.026;2023-03-26T03:21:04;45.91;36.31;68.41;;
76338;Laerm;20358;50.272;19.026;2023-03-26T03:24:10;46.66;36.38;66.29;;
76338;Laerm;20358;50.272;19.026;2023-03-26T03:27:23;45.34;36.88;68.95;;
76338;Laerm;20358;50.272;19.026;2023-03-26T03:30:40;47.33;37.21;67.78;;
76338;Laerm;20358;50.272;19.026;2023-03-26T03:33:57;47.48;37.77;67.23;;
76338;Laerm;20358;50.272;19.026;2023-03-26T03:37:06;45.06;36.97;58.44;;
76338;Laerm;20358;50.272;19.026;2023-03-26T03:40:28;44.95;36.76;61.58;;
76338;Laerm;20358;50.272;19.026;2023-03-26T03:43:34;48.47;37.41;73.23;;
76338;Laerm;20358;50.272;19.026;2023-03-26T03:46:54;47.81;37.55;70.81;;
76338;Laerm;20358;50.272;19.026;2023-03-26T03:50:06;45.33;37.42;65.15;;
76338;Laerm;20358;50.272;19.026;2023-03-26T03:53:22;46.85;36.65;59.69;;
76338;Laerm;20358;50.272;19.026;2023-03-26T03:56:32;45.70;37.14;70.62;;
76338;Laerm;20358;50.272;19.026;2023-03-26T03:59:57;44.10;36.64;64.06;;
76338;Laerm;20358;50.272;19.026;2023-03-26T04:03:18;45.26;36.92;68.38;;
76338;Laerm;20358;50.272;19.026;2023-03-26T04:06:43;44.67;36.93;57.67;;
76338;Laerm;20358;50.272;19.026;2023-03-26T04:09:51;47.62;37.55;68.76;;
76338;Laerm;20358;50.272;19.026;2023-03-26T04:13:00;44.46;36.85;65.86;;
76338;Laerm;20358;50.272;19.026;2023-03-26T04:16:22;47.61;37.85;68.69;;
76338;Laerm;20358;50.272;19.026;2023-03-26T04:19:29;46.28;37.42;67.43;;
76338;Laerm;20358;50.272;19.026;2023-03-26T04:22:37;47.13;37.05;72.47;;
76338;Laerm;20358;50.272;19.026;2023-03-26T04:25:51;43.65;36.01;55.71;;
76338;Laerm;20358;50.272;19.026;2023-03-26T04:29:13;46.58;36.88;60.17;;
76338;Laerm;20358;50.272;19.026;2023-03-26T04:32:24;47.04;36.67;66.06;;
76338;Laerm;20358;50.272;19.026;2023-03-26T04:35:33;45.34;37.30;66.95;;
76338;Laerm;20358;50.272;19.026;2023-03-26T04:38:47;46.02;36.66;68.86;;
76338;Laerm;20358;50.272;19.026;2023-03-26T04:41:59;47.30;38.28;67.24;;
76338;Laerm;20358;50.272;19.026;2023-03-26T04:45:18;47.49;37.96;67.05;;
76338;Laerm;20358;50.272;19.026;2023-03-26T04:48:30;45.70;36.72;63.16;;
76338;Laerm;20358;50.272;19.026;2023-03-26T04:51:39;48.47;38.17;69.64;;
76338;Laerm;20358;50.272;19.026;2023-03-26T04:55:23;46.95;37.09;70.43;;
76338;Laerm;20358;50.272;19.026;2023-03-26T04:58:40;48.51;36.21;68.46;;
76338;Laerm;20358;50.272;19.026;2023-03-26T05:01:46;47.09;37.40;69.97;;
76338;Laerm;20358;50.272;19.026;2023-03-26T05:04:53;48.30;37.65;59.38;;
76338;Laerm;20358;50.272;19.026;2023-03-26T05:08:03;45.31;36.25;60.41;;
76338;Laerm;20358;50.272;19.026;2023-03-26T05:11:13;46.40;37.54;67.92;;
76338;Laerm;20358;50.272;19.026;2023-03-26T05:14:19;47.83;37.34;70.20;;
76338;Laerm;20358;50.272;19.026;2023-03-26T05:17:27;48.08;36.58;65.96;;
76338;Laerm;20358;50.272;19.026;2023-03-26T05:20:38;47.22;37.42;73.66;;
76338;Laerm;20358;50.272;19.026;2023-03-26T05:23:46;50.83;38.06;77.20;;
76338;Laerm;20358;50.272;19.026;2023-03-26T05:26:56;47.32;37.35;68.87;;
76338;Laerm;20358;50.272;19.026;2023-03-26T05:30:14;49.71;38.13;71.62;;
76338;Laerm;20358;50.272;19.026;2023-03-26T05:33:25;49.37;38.26;67.59;;
76338;Laerm;20358;50.272;19.026;2023-03-26T05:36:37;49.32;38.09;65.55;;
76338;Laerm;20358;50.272;19.026;2023-03-26T05:40:10;47.50;37.71;67.08;;
76338;Laerm;20358;50.272;19.026;2023-03-26T05:43:30;50.99;38.18;75.20;;
76338;Laerm;20358;50.272;19.026;2023-03-26T05:47:26;52.14;38.82;73.81;;
76338;Laerm;20358;50.272;19.026;2023-03-26T05:50:33;46.68;38.26;69.37;;
76338;Laerm;20358;50.272;19.026;2023-03-26T05:53:39;50.09;39.17;73.21;;
76338;Laerm;20358;50.272;19.026;2023-03-26T05:57:01;48.37;38.11;66.18;;
76338;Laerm;20358;50.272;19.026;2023-03-26T06:00:28;49.98;40.24;65.81;;
76338;Laerm;20358;50.272;19.026;2023-03-26T06:03:38;48.61;38.85;72.08;;
76338;Laerm;20358;50.272;19.026;2023-03-26T06:06:53;49.59;38.52;70.86;;
76338;Laerm;20358;50.272;19.026;2023-03-26T06:10:00;47.53;37.15;60.63;;
76338;Laerm;20358;50.272;19.026;2023-03-26T06:13:06;46.57;38.02;69.69;;
76338;Laerm;20358;50.272;19.026;2023-03-26T06:16:19;52.12;38.18;73.44;;
76338;Laerm;20358;50.272;19.026;2023-03-26T06:19:44;47.80;36.34;69.04;;
76338;Laerm;20358;50.272;19.026;2023-03-26T06:22:59;48.17;38.38;69.20;;
76338;Laerm;20358;50.272;19.026;2023-03-26T06:26:23;46.72;37.54;64.59;;
76338;Laerm;20358;50.272;19.026;2023-03-26T06:29:38;46.85;36.75;66.40;;
76338;Laerm;20358;50.272;19.026;2023-03-26T06:32:55;49.29;38.83;75.29;;
76338;Laerm;20358;50.272;19.026;2023-03-26T06:36:06;47.67;37.18;67.39;;
76338;Laerm;20358;50.272;19.026;2023-03-26T06:39:12;46.65;37.05;66.63;;
76338;Laerm;20358;50.272;19.026;2023-03-26T06:42:27;46.42;37.95;68.82;;
76338;Laerm;20358;50.272;19.026;2023-03-26T06:46:08;49.65;38.23;68.52;;
76338;Laerm;20358;50.272;19.026;2023-03-26T06:50:03;46.73;37.21;65.32;;
76338;Laerm;20358;50.272;19.026;2023-03-26T06:53:13;49.18;37.31;70.15;;
76338;Laerm;20358;50.272;19.026;2023-03-26T06:56:39;52.65;37.95;78.60;;
76338;Laerm;20358;50.272;19.026;2023-03-26T07:00:07;50.88;38.18;69.38;;
76338;Laerm;20358;50.272;19.026;2023-03-26T07:03:33;50.98;37.46;71.89;;
76338;Laerm;20358;50.272;19.026;2023-03-26T07:07:26;54.79;40.30;81.66;;
76338;Laerm;20358;50.272;19.026;2023-03-26T07:11:05;55.23;38.98;78.49;;
76338;Laerm;20358;50.272;19.026;2023-03-26T07:15:06;51.49;39.87;73.40;;
76338;Laerm;20358;50.272;19.026;2023-03-26T07:19:06;49.79;38.30;70.66;;
76338;Laerm;20358;50.272;19.026;2023-03-26T07:22:20;49.32;38.94;68.98;;
76338;Laerm;20358;50.272;19.026;2023-03-26T07:25:44;49.51;38.03;70.54;;
76338;Laerm;20358;50.272;19.026;2023-03-26T07:29:12;47.74;37.91;66.22;;
76338;Laerm;20358;50.272;19.026;2023-03-26T07:32:48;52.12;38.69;76.59;;
76338;Laerm;20358;50.272;19.026;2023-03-26T07:36:50;49.43;38.07;71.30;;
76338;Laerm;20358;50.272;19.026;2023-03-26T07:40:53;51.17;38.13;69.53;;
76338;Laerm;20358;50.272;19.026;2023-03-26T07:44:42;53.62;40.49;74.62;;
76338;Laerm;20358;50.272;19.026;2023-03-26T07:48:17;56.38;42.47;79.96;;
76338;Laerm;20358;50.272;19.026;2023-03-26T07:51:50;50.71;38.95;67.99;;
76338;Laerm;20358;50.272;19.026;2023-03-26T07:56:02;49.84;39.03;67.99;;
76338;Laerm;20358;50.272;19.026;2023-03-26T07:59:33;50.57;39.21;69.54;;
76338;Laerm;20358;50.272;19.026;2023-03-26T08:03:30;52.60;39.90;69.06;;
76338;Laerm;20358;50.272;19.026;2023-03-26T08:07:12;49.90;41.05;69.96;;
76338;Laerm;20358;50.272;19.026;2023-03-26T08:11:10;50.87;40.14;68.11;;
76338;Laerm;20358;50.272;19.026;2023-03-26T08:14:46;50.86;38.69;67.95;;
76338;Laerm;20358;50.272;19.026;2023-03-26T08:18:09;50.99;38.78;67.99;;
76338;Laerm;20358;50.272;19.026;2023-03-26T08:21:29;52.95;41.47;73.37;;
76338;Laerm;20358;50.272;19.026;2023-03-26T08:24:54;50.98;39.26;70.60;;
76338;Laerm;20358;50.272;19.026;2023-03-26T08:28:31;50.05;38.71;68.41;;
76338;Laerm;20358;50.272;19.026;2023-03-26T08:31:48;51.60;41.74;70.82;;
76338;Laerm;20358;50.272;19.026;2023-03-26T08:34:54;49.53;38.72;68.58;;
76338;Laerm;20358;50.272;19.026;2023-03-26T08:38:02;48.00;39.08;66.99;;
76338;Laerm;20358;50.272;19.026;2023-03-26T08:42:14;48.36;38.68;65.77;;
76338;Laerm;20358;50.272;19.026;2023-03-26T08:46:12;54.40;40.17;82.06;;
76338;Laerm;20358;50.272;19.026;2023-03-26T08:50:08;50.48;39.90;71.66;;
76338;Laerm;20358;50.272;19.026;2023-03-26T08:57:58;53.36;39.82;77.87;;
76338;Laerm;20358;50.272;19.026;2023-03-26T09:01:57;52.26;42.25;73.27;;
76338;Laerm;20358;50.272;19.026;2023-03-26T09:09:51;50.09;38.38;69.05;;
76338;Laerm;20358;50.272;19.026;2023-03-26T09:13:57;54.44;39.86;77.03;;
76338;Laerm;20358;50.272;19.026;2023-03-26T09:18:04;51.82;38.52;76.11;;
76338;Laerm;20358;50.272;19.026;2023-03-26T09:25:53;48.55;37.29;71.17;;
76338;Laerm;20358;50.272;19.026;2023-03-26T09:33:56;48.79;36.13;68.17;;
76338;Laerm;20358;50.272;19.026;2023-03-26T09:37:18;49.13;37.94;68.24;;
76338;Laerm;20358;50.272;19.026;2023-03-26T09:40:39;49.70;37.63;69.21;;
76338;Laerm;20358;50.272;19.026;2023-03-26T09:44:58;50.92;40.34;69.29;;
76338;Laerm;20358;50.272;19.026;2023-03-26T09:48:44;51.23;40.00;70.45;;
76338;Laerm;20358;50.272;19.026;2023-03-26T09:52:25;54.84;39.42;79.98;;
76338;Laerm;20358;50.272;19.026;2023-03-26T09:56:15;52.46;43.85;71.15;;
76338;Laerm;20358;50.272;19.026;2023-03-26T10:00:04;52.83;40.18;78.16;;
76338;Laerm;20358;50.272;19.026;2023-03-26T10:03:41;54.61;39.35;78.68;;
76338;Laerm;20358;50.272;19.026;2023-03-26T10:07:04;55.28;42.11;74.19;;
76338;Laerm;20358;50.272;19.026;2023-03-26T10:10:27;51.02;40.95;70.27;;
76338;Laerm;20358;50.272;19.026;2023-03-26T10:13:56;53.30;41.39;74.08;;
76338;Laerm;20358;50.272;19.026;2023-03-26T10:17:39;61.35;42.65;87.23;;
76338;Laerm;20358;50.272;19.026;2023-03-26T10:21:04;56.94;42.20;80.46;;
76338;Laerm;20358;50.272;19.026;2023-03-26T10:24:43;51.84;43.15;64.72;;
76338;Laerm;20358;50.272;19.026;2023-03-26T10:28:12;52.41;40.55;77.22;;
76338;Laerm;20358;50.272;19.026;2023-03-26T10:31:42;53.35;38.97;73.38;;
76338;Laerm;20358;50.272;19.026;2023-03-26T10:35:07;55.51;41.12;78.88;;
76338;Laerm;20358;50.272;19.026;2023-03-26T10:38:26;53.16;40.77;76.24;;
76338;Laerm;20358;50.272;19.026;2023-03-26T10:41:55;57.41;42.24;82.47;;
76338;Laerm;20358;50.272;19.026;2023-03-26T10:45:35;57.22;43.02;84.30;;
76338;Laerm;20358;50.272;19.026;2023-03-26T10:49:24;61.92;42.82;84.71;;
76338;Laerm;20358;50.272;19.026;2023-03-26T10:52:43;56.91;41.26;83.65;;
76338;Laerm;20358;50.272;19.026;2023-03-26T10:55:59;57.82;42.78;78.74;;
76338;Laerm;20358;50.272;19.026;2023-03-26T10:59:15;60.12;43.29;82.15;;
76338;Laerm;20358;50.272;19.026;2023-03-26T11:02:29;60.30;44.78;87.91;;
76338;Laerm;20358;50.272;19.026;2023-03-26T11:05:50;59.23;39.75;87.12;;
76338;Laerm;20358;50.272;19.026;2023-03-26T11:09:21;54.90;41.39;79.34;;
76338;Laerm;20358;50.272;19.026;2023-03-26T11:12:45;52.25;39.77;71.95;;
76338;Laerm;20358;50.272;19.026;2023-03-26T11:16:02;53.68;42.22;70.24;;
76338;Laerm;20358;50.272;19.026;2023-03-26T11:19:21;53.94;42.10;76.27;;
76338;Laerm;20358;50.272;19.026;2023-03-26T11:22:50;60.58;42.73;88.25;;
76338;Laerm;20358;50.272;19.026;2023-03-26T11:26:09;59.73;42.60;77.37;;
76338;Laerm;20358;50.272;19.026;2023-03-26T11:29:42;61.41;42.16;87.57;;
76338;Laerm;20358;50.272;19.026;2023-03-26T11:33:00;62.96;43.95;85.72;;
76338;Laerm;20358;50.272;19.026;2023-03-26T11:36:12;57.71;43.00;76.83;;
76338;Laerm;20358;50.272;19.026;2023-03-26T11:39:28;53.33;40.68;70.50;;
76338;Laerm;20358;50.272;19.026;2023-03-26T11:42:42;58.38;38.98;87.21;;
76338;Laerm;20358;50.272;19.026;2023-03-26T11:45:50;62.24;42.61;87.01;;
76338;Laerm;20358;50.272;19.026;2023-03-26T11:49:08;57.03;40.20;82.23;;
76338;Laerm;20358;50.272;19.026;2023-03-26T11:52:15;54.84;40.10;76.29;;
76338;Laerm;20358;50.272;19.026;2023-03-26T11:55:25;55.40;39.83;81.65;;
76338;Laerm;20358;50.272;19.026;2023-03-26T11:58:42;53.82;40.39;71.06;;
76338;Laerm;20358;50.272;19.026;2023-03-26T12:01:57;53.19;41.37;72.65;;
76338;Laerm;20358;50.272;19.026;2023-03-26T12:05:17;52.11;40.94;69.31;;
76338;Laerm;20358;50.272;19.026;2023-03-26T12:08:32;52.13;39.74;72.70;;
76338;Laerm;20358;50.272;19.026;2023-03-26T12:11:47;54.33;39.41;72.40;;
76338;Laerm;20358;50.272;19.026;2023-03-26T12:14:54;54.52;39.20;74.86;;
76338;Laerm;20358;50.272;19.026;2023-03-26T12:18:24;52.88;39.33;71.85;;
76338;Laerm;20358;50.272;19.026;2023-03-26T12:21:45;51.53;38.51;70.58;;
76338;Laerm;20358;50.272;19.026;2023-03-26T12:25:03;51.13;39.01;69.76;;
76338;Laerm;20358;50.272;19.026;2023-03-26T12:28:19;50.58;41.23;69.32;;
76338;Laerm;20358;50.272;19.026;2023-03-26T12:31:27;59.31;41.30;79.91;;
76338;Laerm;20358;50.272;19.026;2023-03-26T12:34:36;54.63;42.00;75.72;;
76338;Laerm;20358;50.272;19.026;2023-03-26T12:37:46;51.11;40.96;69.64;;
76338;Laerm;20358;50.272;19.026;2023-03-26T12:41:07;55.77;43.32;77.01;;
76338;Laerm;20358;50.272;19.026;2023-03-26T12:44:43;57.07;39.80;78.66;;
76338;Laerm;20358;50.272;19.026;2023-03-26T12:48:04;61.73;40.65;88.54;;
76338;Laerm;20358;50.272;19.026;2023-03-26T12:51:29;59.24;40.92;80.61;;
76338;Laerm;20358;50.272;19.026;2023-03-26T12:54:55;53.97;40.02;75.76;;
76338;Laerm;20358;50.272;19.026;2023-03-26T12:59:00;53.48;41.34;72.91;;
76338;Laerm;20358;50.272;19.026;2023-03-26T13:02:40;52.19;39.97;70.83;;
76338;Laerm;20358;50.272;19.026;2023-03-26T13:06:25;60.37;39.65;89.88;;
76338;Laerm;20358;50.272;19.026;2023-03-26T13:10:32;55.97;38.55;87.15;;
76338;Laerm;20358;50.272;19.026;2023-03-26T13:14:18;52.41;38.48;70.39;;
76338;Laerm;20358;50.272;19.026;2023-03-26T13:17:38;52.93;40.42;73.32;;
76338;Laerm;20358;50.272;19.026;2023-03-26T13:21:00;51.39;40.05;73.85;;
76338;Laerm;20358;50.272;19.026;2023-03-26T13:24:36;50.73;38.61;69.42;;
76338;Laerm;20358;50.272;19.026;2023-03-26T13:28:05;57.55;42.10;77.49;;
76338;Laerm;20358;50.272;19.026;2023-03-26T13:31:24;51.07;39.51;67.02;;
76338;Laerm;20358;50.272;19.026;2023-03-26T13:34:55;52.85;42.04;74.49;;
76338;Laerm;20358;50.272;19.026;2023-03-26T13:38:16;55.24;41.73;75.59;;
76338;Laerm;20358;50.272;19.026;2023-03-26T13:41:45;52.53;41.91;70.50;;
76338;Laerm;20358;50.272;19.026;2023-03-26T13:45:13;50.90;39.43;68.85;;
76338;Laerm;20358;50.272;19.026;2023-03-26T13:48:34;53.45;40.06;73.64;;
76338;Laerm;20358;50.272;19.026;2023-03-26T13:51:48;58.16;40.83;81.61;;
76338;Laerm;20358;50.272;19.026;2023-03-26T13:55:20;53.13;40.00;76.17;;
76338;Laerm;20358;50.272;19.026;2023-03-26T13:58:35;51.85;42.31;70.76;;
76338;Laerm;20358;50.272;19.026;2023-03-26T14:01:53;51.27;42.16;71.24;;
76338;Laerm;20358;50.272;19.026;2023-03-26T14:05:10;52.36;43.14;76.08;;
76338;Laerm;20358;50.272;19.026;2023-03-26T14:08:31;50.96;40.52;69.95;;
76338;Laerm;20358;50.272;19.026;2023-03-26T14:12:07;51.45;41.40;74.53;;
76338;Laerm;20358;50.272;19.026;2023-03-26T14:15:35;50.78;43.00;68.52;;
76338;Laerm;20358;50.272;19.026;2023-03-26T14:19:00;50.83;41.88;67.20;;
76338;Laerm;20358;50.272;19.026;2023-03-26T14:22:25;50.09;40.43;69.98;;
76338;Laerm;20358;50.272;19.026;2023-03-26T14:26:00;50.97;38.37;70.66;;
76338;Laerm;20358;50.272;19.026;2023-03-26T14:29:29;52.20;41.25;70.27;;
76338;Laerm;20358;50.272;19.026;2023-03-26T14:32:58;50.93;39.13;72.07;;
76338;Laerm;20358;50.272;19.026;2023-03-26T14:36:42;51.31;37.29;69.33;;
76338;Laerm;20358;50.272;19.026;2023-03-26T14:40:27;50.79;39.17;68.51;;
76338;Laerm;20358;50.272;19.026;2023-03-26T14:44:22;52.59;41.09;73.54;;
76338;Laerm;20358;50.272;19.026;2023-03-26T14:48:11;50.36;40.87;66.53;;
76338;Laerm;20358;50.272;19.026;2023-03-26T14:51:45;61.68;38.21;82.22;;
76338;Laerm;20358;50.272;19.026;2023-03-26T14:55:01;52.28;40.44;68.86;;
76338;Laerm;20358;50.272;19.026;2023-03-26T14:58:55;50.53;38.64;70.88;;
76338;Laerm;20358;50.272;19.026;2023-03-26T15:03:01;52.79;38.80;73.75;;
76338;Laerm;20358;50.272;19.026;2023-03-26T15:07:06;50.98;38.11;71.96;;
76338;Laerm;20358;50.272;19.026;2023-03-26T15:11:03;52.02;37.19;70.00;;
76338;Laerm;20358;50.272;19.026;2023-03-26T15:14:59;51.78;38.81;69.91;;
76338;Laerm;20358;50.272;19.026;2023-03-26T15:18:59;52.01;39.04;67.65;;
76338;Laerm;20358;50.272;19.026;2023-03-26T15:27:22;51.75;41.28;69.82;;
76338;Laerm;20358;50.272;19.026;2023-03-26T15:31:05;51.89;39.76;68.91;;
76338;Laerm;20358;50.272;19.026;2023-03-26T15:35:16;50.65;36.11;72.15;;
76338;Laerm;20358;50.272;19.026;2023-03-26T15:43:11;50.81;39.38;69.75;;
76338;Laerm;20358;50.272;19.026;2023-03-26T15:46:33;53.25;41.90;72.82;;
76338;Laerm;20358;50.272;19.026;2023-03-26T15:50:17;52.98;41.76;69.46;;
76338;Laerm;20358;50.272;19.026;2023-03-26T15:53:39;51.25;38.58;69.93;;
76338;Laerm;20358;50.272;19.026;2023-03-26T15:57:18;51.52;40.89;70.88;;
76338;Laerm;20358;50.272;19.026;2023-03-26T16:00:37;51.42;40.32;68.06;;
76338;Laerm;20358;50.272;19.026;2023-03-26T16:03:59;53.93;40.46;74.65;;
76338;Laerm;20358;50.272;19.026;2023-03-26T16:07:36;65.35;42.02;93.79;;
76338;Laerm;20358;50.272;19.026;2023-03-26T16:10:53;51.07;39.08;69.96;;
76338;Laerm;20358;50.272;19.026;2023-03-26T16:14:16;51.70;38.77;67.18;;
76338;Laerm;20358;50.272;19.026;2023-03-26T16:18:18;51.03;38.45;70.48;;
76338;Laerm;20358;50.272;19.026;2023-03-26T16:21:54;51.63;36.91;68.36;;
76338;Laerm;20358;50.272;19.026;2023-03-26T16:25:24;54.00;40.74;72.99;;
76338;Laerm;20358;50.272;19.026;2023-03-26T16:28:34;53.44;39.99;69.73;;
76338;Laerm;20358;50.272;19.026;2023-03-26T16:32:21;52.63;41.05;71.59;;
76338;Laerm;20358;50.272;19.026;2023-03-26T16:36:22;50.50;39.08;67.98;;
76338;Laerm;20358;50.272;19.026;2023-03-26T16:39:41;51.94;41.09;70.30;;
76338;Laerm;20358;50.272;19.026;2023-03-26T16:43:01;52.52;41.69;72.43;;
76338;Laerm;20358;50.272;19.026;2023-03-26T16:46:29;50.58;39.52;69.52;;
76338;Laerm;20358;50.272;19.026;2023-03-26T16:50:01;51.45;38.40;68.32;;
76338;Laerm;20358;50.272;19.026;2023-03-26T16:53:35;51.64;39.23;72.74;;
76338;Laerm;20358;50.272;19.026;2023-03-26T16:56:57;52.67;41.57;69.71;;
76338;Laerm;20358;50.272;19.026;2023-03-26T17:00:41;49.59;38.59;65.11;;
76338;Laerm;20358;50.272;19.026;2023-03-26T17:03:58;50.31;38.80;65.96;;
76338;Laerm;20358;50.272;19.026;2023-03-26T17:07:17;50.73;39.06;67.64;;
76338;Laerm;20358;50.272;19.026;2023-03-26T17:10:39;49.57;38.73;67.04;;
76338;Laerm;20358;50.272;19.026;2023-03-26T17:14:02;50.92;37.81;69.79;;
76338;Laerm;20358;50.272;19.026;2023-03-26T17:17:44;50.66;37.08;70.37;;
76338;Laerm;20358;50.272;19.026;2023-03-26T17:21:02;50.78;39.78;71.46;;
76338;Laerm;20358;50.272;19.026;2023-03-26T17:24:29;51.69;40.29;68.08;;
76338;Laerm;20358;50.272;19.026;2023-03-26T17:28:42;50.69;37.59;70.41;;
76338;Laerm;20358;50.272;19.026;2023-03-26T17:32:03;50.46;38.75;69.12;;
76338;Laerm;20358;50.272;19.026;2023-03-26T17:35:13;50.16;39.04;68.17;;
76338;Laerm;20358;50.272;19.026;2023-03-26T17:38:59;51.71;38.24;70.86;;
76338;Laerm;20358;50.272;19.026;2023-03-26T17:42:25;48.42;37.22;66.87;;
76338;Laerm;20358;50.272;19.026;2023-03-26T17:45:40;49.31;37.94;68.34;;
76338;Laerm;20358;50.272;19.026;2023-03-26T17:49:17;50.46;39.57;68.46;;
76338;Laerm;20358;50.272;19.026;2023-03-26T17:52:42;51.25;37.29;69.40;;
76338;Laerm;20358;50.272;19.026;2023-03-26T17:55:52;49.60;40.26;69.14;;
76338;Laerm;20358;50.272;19.026;2023-03-26T17:59:04;48.98;38.30;67.42;;
76338;Laerm;20358;50.272;19.026;2023-03-26T18:02:25;51.41;39.67;69.76;;
76338;Laerm;20358;50.272;19.026;2023-03-26T18:05:38;49.43;39.91;64.94;;
76338;Laerm;20358;50.272;19.026;2023-03-26T18:09:15;48.45;37.12;67.33;;
76338;Laerm;20358;50.272;19.026;2023-03-26T18:13:08;50.61;38.30;69.99;;
76338;Laerm;20358;50.272;19.026;2023-03-26T18:16:36;51.09;40.21;70.71;;
76338;Laerm;20358;50.272;19.026;2023-03-26T18:19:51;52.33;38.36;68.94;;
76338;Laerm;20358;50.272;19.026;2023-03-26T18:23:10;52.11;38.62;72.89;;
76338;Laerm;20358;50.272;19.026;2023-03-26T18:26:30;49.66;37.00;67.93;;
76338;Laerm;20358;50.272;19.026;2023-03-26T18:29:37;49.78;38.08;68.44;;
76338;Laerm;20358;50.272;19.026;2023-03-26T18:32:56;50.81;39.72;69.09;;
76338;Laerm;20358;50.272;19.026;2023-03-26T18:36:11;50.98;37.50;71.18;;
76338;Laerm;20358;50.272;19.026;2023-03-26T18:39:19;50.20;38.81;69.12;;
76338;Laerm;20358;50.272;19.026;2023-03-26T18:42:29;49.93;37.97;68.50;;
76338;Laerm;20358;50.272;19.026;2023-03-26T18:45:38;49.42;38.47;66.05;;
76338;Laerm;20358;50.272;19.026;2023-03-26T18:48:46;49.12;37.40;67.54;;
76338;Laerm;20358;50.272;19.026;2023-03-26T18:51:57;47.32;36.60;67.08;;
76338;Laerm;20358;50.272;19.026;2023-03-26T18:55:04;49.86;37.85;69.23;;
76338;Laerm;20358;50.272;19.026;2023-03-26T18:58:24;50.04;37.13;71.29;;
76338;Laerm;20358;50.272;19.026;2023-03-26T19:01:34;53.64;41.12;74.81;;
76338;Laerm;20358;50.272;19.026;2023-03-26T19:04:47;48.46;36.76;64.70;;
76338;Laerm;20358;50.272;19.026;2023-03-26T19:08:05;49.79;39.09;66.46;;
76338;Laerm;20358;50.272;19.026;2023-03-26T19:11:16;49.38;36.87;68.23;;